sensor_id;sensor_type;location;lat;lon;timestamp;pressure;altitude;pressure_sealevel;temperature;humidity
73240;BME280;61452;40.054;4.110;2023-05-25T00:01:10;101483.78;;;20.50;56.11
73240;BME280;61452;40.054;4.110;2023-05-25T00:06:12;101471.47;;;20.49;56.19
73240;BME280;61452;40.054;4.110;2023-05-25T00:11:16;101462.94;;;20.44;56.61
73240;BME280;61452;40.054;4.110;2023-05-25T00:16:20;101467.09;;;20.48;56.38
73240;BME280;61452;40.054;4.110;2023-05-25T00:21:22;101475.09;;;20.48;56.33
73240;BME280;61452;40.054;4.110;2023-05-25T00:26:26;101474.47;;;20.44;56.50
73240;BME280;61452;40.054;4.110;2023-05-25T00:31:28;101463.81;;;20.44;56.54
73240;BME280;61452;40.054;4.110;2023-05-25T00:36:33;101454.63;;;20.48;56.43
73240;BME280;61452;40.054;4.110;2023-05-25T00:41:37;101452.06;;;20.47;56.50
73240;BME280;61452;40.054;4.110;2023-05-25T00:46:46;101450.63;;;20.43;56.62
73240;BME280;61452;40.054;4.110;2023-05-25T00:51:50;101440.66;;;20.45;56.56
73240;BME280;61452;40.054;4.110;2023-05-25T00:57:00;101444.19;;;20.45;56.44
73240;BME280;61452;40.054;4.110;2023-05-25T01:02:12;101448.78;;;20.43;56.62
73240;BME280;61452;40.054;4.110;2023-05-25T01:07:23;101447.81;;;20.44;56.77
73240;BME280;61452;40.054;4.110;2023-05-25T01:12:35;101452.06;;;20.47;56.46
73240;BME280;61452;40.054;4.110;2023-05-25T01:17:38;101458.25;;;20.47;56.30
73240;BME280;61452;40.054;4.110;2023-05-25T01:22:47;101455.94;;;20.43;56.70
73240;BME280;61452;40.054;4.110;2023-05-25T01:33:19;101453.88;;;20.46;56.47
73240;BME280;61452;40.054;4.110;2023-05-25T01:38:22;101459.59;;;20.42;56.79
73240;BME280;61452;40.054;4.110;2023-05-25T01:43:24;101454.25;;;20.42;56.57
73240;BME280;61452;40.054;4.110;2023-05-25T01:53:59;101447.81;;;20.44;56.61
73240;BME280;61452;40.054;4.110;2023-05-25T01:59:05;101451.59;;;20.42;56.65
73240;BME280;61452;40.054;4.110;2023-05-25T02:04:09;101454.94;;;20.44;56.45
73240;BME280;61452;40.054;4.110;2023-05-25T02:09:11;101462.09;;;20.43;56.35
73240;BME280;61452;40.054;4.110;2023-05-25T02:14:14;101464.91;;;20.42;56.29
73240;BME280;61452;40.054;4.110;2023-05-25T02:19:16;101475.56;;;20.42;56.36
73240;BME280;61452;40.054;4.110;2023-05-25T02:24:18;101470.25;;;20.42;56.34
73240;BME280;61452;40.054;4.110;2023-05-25T02:29:20;101477.28;;;20.43;56.41
73240;BME280;61452;40.054;4.110;2023-05-25T02:34:23;101482.72;;;20.41;56.47
73240;BME280;61452;40.054;4.110;2023-05-25T02:39:26;101473.88;;;20.41;56.49
73240;BME280;61452;40.054;4.110;2023-05-25T02:44:31;101475.56;;;20.42;56.33
73240;BME280;61452;40.054;4.110;2023-05-25T02:49:33;101473.03;;;20.40;56.37
73240;BME280;61452;40.054;4.110;2023-05-25T02:54:36;101476.53;;;20.41;56.41
73240;BME280;61452;40.054;4.110;2023-05-25T02:59:40;101479.09;;;20.42;56.48
73240;BME280;61452;40.054;4.110;2023-05-25T03:04:42;101473.03;;;20.40;56.43
73240;BME280;61452;40.054;4.110;2023-05-25T03:09:44;101477.50;;;20.40;56.37
73240;BME280;61452;40.054;4.110;2023-05-25T03:14:46;101471.22;;;20.41;56.41
73240;BME280;61452;40.054;4.110;2023-05-25T03:19:49;101455.31;;;20.39;56.44
73240;BME280;61452;40.054;4.110;2023-05-25T03:24:52;101457.03;;;20.40;56.43
73240;BME280;61452;40.054;4.110;2023-05-25T03:29:54;101453.50;;;20.40;56.27
73240;BME280;61452;40.054;4.110;2023-05-25T03:34:56;101449.03;;;20.40;56.53
73240;BME280;61452;40.054;4.110;2023-05-25T03:39:59;101449.88;;;20.41;56.33
73240;BME280;61452;40.054;4.110;2023-05-25T03:45:04;101454.38;;;20.40;56.39
73240;BME280;61452;40.054;4.110;2023-05-25T03:50:07;101462.47;;;20.39;56.61
73240;BME280;61452;40.054;4.110;2023-05-25T03:55:09;101459.69;;;20.40;56.33
73240;BME280;61452;40.054;4.110;2023-05-25T04:00:12;101451.81;;;20.39;56.31
73240;BME280;61452;40.054;4.110;2023-05-25T04:05:16;101447.34;;;20.39;56.48
73240;BME280;61452;40.054;4.110;2023-05-25T04:10:18;101451.81;;;20.39;56.54
73240;BME280;61452;40.054;4.110;2023-05-25T04:15:21;101451.94;;;20.37;56.36
73240;BME280;61452;40.054;4.110;2023-05-25T04:20:46;101454.47;;;20.39;56.37
73240;BME280;61452;40.054;4.110;2023-05-25T04:25:49;101449.25;;;20.37;56.51
73240;BME280;61452;40.054;4.110;2023-05-25T04:30:52;101459.06;;;20.37;56.44
73240;BME280;61452;40.054;4.110;2023-05-25T04:36:15;101459.81;;;20.39;56.48
73240;BME280;61452;40.054;4.110;2023-05-25T04:41:18;101448.28;;;20.38;56.28
73240;BME280;61452;40.054;4.110;2023-05-25T04:46:24;101459.22;;;20.35;56.50
73240;BME280;61452;40.054;4.110;2023-05-25T04:51:26;101461.88;;;20.35;56.51
73240;BME280;61452;40.054;4.110;2023-05-25T04:56:30;101473.38;;;20.36;56.52
73240;BME280;61452;40.054;4.110;2023-05-25T05:01:32;101469.03;;;20.35;56.44
73240;BME280;61452;40.054;4.110;2023-05-25T05:06:37;101469.13;;;20.33;56.30
73240;BME280;61452;40.054;4.110;2023-05-25T05:11:40;101469.97;;;20.34;56.43
73240;BME280;61452;40.054;4.110;2023-05-25T05:16:42;101474.34;;;20.35;56.46
73240;BME280;61452;40.054;4.110;2023-05-25T05:21:45;101483.19;;;20.35;56.17
73240;BME280;61452;40.054;4.110;2023-05-25T05:26:49;101492.16;;;20.34;56.32
73240;BME280;61452;40.054;4.110;2023-05-25T05:32:09;101497.38;;;20.36;56.32
73240;BME280;61452;40.054;4.110;2023-05-25T05:37:11;101498.34;;;20.35;56.21
73240;BME280;61452;40.054;4.110;2023-05-25T05:42:14;101509.09;;;20.33;56.24
73240;BME280;61452;40.054;4.110;2023-05-25T05:47:17;101510.69;;;20.36;56.29
73240;BME280;61452;40.054;4.110;2023-05-25T05:52:19;101507.28;;;20.34;56.36
73240;BME280;61452;40.054;4.110;2023-05-25T05:57:21;101509.09;;;20.33;56.40
73240;BME280;61452;40.054;4.110;2023-05-25T06:02:23;101514.44;;;20.33;56.48
73240;BME280;61452;40.054;4.110;2023-05-25T06:07:26;101516.13;;;20.34;56.36
73240;BME280;61452;40.054;4.110;2023-05-25T06:12:30;101525.09;;;20.33;56.46
73240;BME280;61452;40.054;4.110;2023-05-25T06:17:33;101511.34;;;20.27;56.33
73240;BME280;61452;40.054;4.110;2023-05-25T06:22:37;101538.31;;;20.35;56.49
73240;BME280;61452;40.054;4.110;2023-05-25T06:27:39;101546.28;;;20.35;56.23
73240;BME280;61452;40.054;4.110;2023-05-25T06:32:41;101555.13;;;20.35;56.13
73240;BME280;61452;40.054;4.110;2023-05-25T06:37:46;101565.06;;;20.33;56.41
73240;BME280;61452;40.054;4.110;2023-05-25T06:42:51;101559.31;;;20.27;56.34
73240;BME280;61452;40.054;4.110;2023-05-25T06:48:12;101574.00;;;20.32;56.35
73240;BME280;61452;40.054;4.110;2023-05-25T06:53:15;101577.53;;;20.33;56.37
73240;BME280;61452;40.054;4.110;2023-05-25T06:58:18;101581.13;;;20.32;56.58
73240;BME280;61452;40.054;4.110;2023-05-25T07:03:20;101576.69;;;20.32;56.40
73240;BME280;61452;40.054;4.110;2023-05-25T07:08:22;101584.56;;;20.34;56.38
73240;BME280;61452;40.054;4.110;2023-05-25T07:13:24;101581.13;;;20.32;56.41
73240;BME280;61452;40.054;4.110;2023-05-25T07:18:26;101588.19;;;20.33;56.69
73240;BME280;61452;40.054;4.110;2023-05-25T07:23:29;101593.50;;;20.33;56.59
73240;BME280;61452;40.054;4.110;2023-05-25T07:28:31;101584.66;;;20.32;56.79
73240;BME280;61452;40.054;4.110;2023-05-25T07:33:33;101582.84;;;20.33;56.90
73240;BME280;61452;40.054;4.110;2023-05-25T07:38:35;101585.53;;;20.33;56.84
73240;BME280;61452;40.054;4.110;2023-05-25T07:43:38;101586.38;;;20.33;56.87
73240;BME280;61452;40.054;4.110;2023-05-25T07:48:40;101581.03;;;20.33;57.07
73240;BME280;61452;40.054;4.110;2023-05-25T07:53:42;101597.03;;;20.33;57.54
73240;BME280;61452;40.054;4.110;2023-05-25T07:58:44;101589.03;;;20.33;57.34
73240;BME280;61452;40.054;4.110;2023-05-25T08:03:47;101594.38;;;20.33;57.26
73240;BME280;61452;40.054;4.110;2023-05-25T08:08:50;101587.34;;;20.32;57.22
73240;BME280;61452;40.054;4.110;2023-05-25T08:13:52;101593.41;;;20.34;57.55
73240;BME280;61452;40.054;4.110;2023-05-25T08:18:54;101595.22;;;20.34;57.42
73240;BME280;61452;40.054;4.110;2023-05-25T08:23:57;101602.38;;;20.33;57.65
73240;BME280;61452;40.054;4.110;2023-05-25T08:28:59;101605.88;;;20.34;58.03
73240;BME280;61452;40.054;4.110;2023-05-25T08:34:03;101600.66;;;20.32;57.68
73240;BME280;61452;40.054;4.110;2023-05-25T08:39:05;101611.31;;;20.32;57.71
73240;BME280;61452;40.054;4.110;2023-05-25T08:44:12;101624.41;;;20.35;58.19
73240;BME280;61452;40.054;4.110;2023-05-25T08:49:15;101627.09;;;20.35;57.56
73240;BME280;61452;40.054;4.110;2023-05-25T08:54:40;101627.94;;;20.36;57.66
73240;BME280;61452;40.054;4.110;2023-05-25T09:00:03;101633.38;;;20.34;57.83
73240;BME280;61452;40.054;4.110;2023-05-25T09:05:08;101627.09;;;20.35;58.35
73240;BME280;61452;40.054;4.110;2023-05-25T09:10:10;101629.75;;;20.35;57.79
73240;BME280;61452;40.054;4.110;2023-05-25T09:15:12;101637.75;;;20.35;58.08
73240;BME280;61452;40.054;4.110;2023-05-25T09:20:15;101635.09;;;20.35;58.47
73240;BME280;61452;40.054;4.110;2023-05-25T09:25:19;101639.44;;;20.36;58.24
73240;BME280;61452;40.054;4.110;2023-05-25T09:30:21;101649.13;;;20.37;57.86
73240;BME280;61452;40.054;4.110;2023-05-25T09:35:23;101650.94;;;20.37;58.28
73240;BME280;61452;40.054;4.110;2023-05-25T09:40:26;101653.47;;;20.38;58.38
73240;BME280;61452;40.054;4.110;2023-05-25T09:45:28;101656.25;;;20.37;58.19
73240;BME280;61452;40.054;4.110;2023-05-25T09:50:30;101654.44;;;20.37;57.76
73240;BME280;61452;40.054;4.110;2023-05-25T09:55:33;101666.81;;;20.38;57.59
73240;BME280;61452;40.054;4.110;2023-05-25T10:00:54;101673.84;;;20.39;57.60
73240;BME280;61452;40.054;4.110;2023-05-25T10:05:56;101674.69;;;20.40;57.43
73240;BME280;61452;40.054;4.110;2023-05-25T10:10:59;101675.56;;;20.40;57.44
73240;BME280;61452;40.054;4.110;2023-05-25T10:16:02;101685.34;;;20.40;57.52
73240;BME280;61452;40.054;4.110;2023-05-25T10:21:06;101701.34;;;20.40;57.37
73240;BME280;61452;40.054;4.110;2023-05-25T10:26:11;101696.00;;;20.40;57.39
73240;BME280;61452;40.054;4.110;2023-05-25T10:31:15;101692.38;;;20.41;57.60
73240;BME280;61452;40.054;4.110;2023-05-25T10:36:19;101696.88;;;20.40;57.46
73240;BME280;61452;40.054;4.110;2023-05-25T10:41:21;101696.97;;;20.39;57.64
73240;BME280;61452;40.054;4.110;2023-05-25T10:46:24;101695.06;;;20.41;57.55
73240;BME280;61452;40.054;4.110;2023-05-25T10:51:41;101697.81;;;20.39;57.55
73240;BME280;61452;40.054;4.110;2023-05-25T10:57:18;101699.63;;;20.39;57.52
73240;BME280;61452;40.054;4.110;2023-05-25T11:02:20;101705.59;;;20.42;57.51
73240;BME280;61452;40.054;4.110;2023-05-25T11:07:25;101707.28;;;20.43;57.62
73240;BME280;61452;40.054;4.110;2023-05-25T11:12:27;101702.94;;;20.42;57.55
73240;BME280;61452;40.054;4.110;2023-05-25T11:17:29;101708.28;;;20.42;57.34
73240;BME280;61452;40.054;4.110;2023-05-25T11:22:34;101707.41;;;20.42;57.46
73240;BME280;61452;40.054;4.110;2023-05-25T11:27:44;101696.75;;;20.42;57.66
73240;BME280;61452;40.054;4.110;2023-05-25T11:32:48;101702.94;;;20.42;57.55
73240;BME280;61452;40.054;4.110;2023-05-25T11:37:51;101717.13;;;20.43;57.51
73240;BME280;61452;40.054;4.110;2023-05-25T11:42:55;101737.34;;;20.45;57.63
73240;BME280;61452;40.054;4.110;2023-05-25T11:47:58;101722.31;;;20.44;57.72
73240;BME280;61452;40.054;4.110;2023-05-25T11:53:04;101718.59;;;20.47;57.72
73240;BME280;61452;40.054;4.110;2023-05-25T11:58:08;101719.53;;;20.46;57.75
73240;BME280;61452;40.054;4.110;2023-05-25T12:03:28;101710.69;;;20.45;57.79
73240;BME280;61452;40.054;4.110;2023-05-25T12:08:34;101712.28;;;20.48;57.60
73240;BME280;61452;40.054;4.110;2023-05-25T12:13:39;101709.63;;;20.48;57.82
73240;BME280;61452;40.054;4.110;2023-05-25T12:18:42;101708.03;;;20.45;57.79
73240;BME280;61452;40.054;4.110;2023-05-25T12:23:44;101705.25;;;20.47;57.88
73240;BME280;61452;40.054;4.110;2023-05-25T12:29:06;101695.44;;;20.47;57.64
73240;BME280;61452;40.054;4.110;2023-05-25T12:34:16;101700.66;;;20.49;57.55
73240;BME280;61452;40.054;4.110;2023-05-25T12:44:33;101688.16;;;20.49;57.76
73240;BME280;61452;40.054;4.110;2023-05-25T12:49:36;101687.44;;;20.47;57.85
73240;BME280;61452;40.054;4.110;2023-05-25T12:54:43;101676.91;;;20.46;57.71
73240;BME280;61452;40.054;4.110;2023-05-25T12:59:46;101674.84;;;20.49;57.48
73240;BME280;61452;40.054;4.110;2023-05-25T13:04:48;101660.81;;;20.47;57.69
73240;BME280;61452;40.054;4.110;2023-05-25T13:09:51;101660.56;;;20.50;57.47
73240;BME280;61452;40.054;4.110;2023-05-25T13:14:53;101672.81;;;20.53;57.43
73240;BME280;61452;40.054;4.110;2023-05-25T13:19:55;101682.63;;;20.52;57.46
73240;BME280;61452;40.054;4.110;2023-05-25T13:24:57;101675.69;;;20.50;57.55
73240;BME280;61452;40.054;4.110;2023-05-25T13:29:59;101675.69;;;20.50;57.42
73240;BME280;61452;40.054;4.110;2023-05-25T13:35:02;101672.91;;;20.51;57.64
73240;BME280;61452;40.054;4.110;2023-05-25T13:40:05;101677.28;;;20.52;57.66
73240;BME280;61452;40.054;4.110;2023-05-25T13:45:08;101680.06;;;20.51;57.60
73240;BME280;61452;40.054;4.110;2023-05-25T13:50:10;101686.13;;;20.53;57.40
73240;BME280;61452;40.054;4.110;2023-05-25T13:55:13;101685.03;;;20.55;57.47
73240;BME280;61452;40.054;4.110;2023-05-25T14:00:15;101687.09;;;20.52;57.61
73240;BME280;61452;40.054;4.110;2023-05-25T14:05:17;101694.13;;;20.53;57.64
73240;BME280;61452;40.054;4.110;2023-05-25T14:10:20;101698.59;;;20.52;57.77
73240;BME280;61452;40.054;4.110;2023-05-25T14:15:22;101706.59;;;20.52;57.63
73240;BME280;61452;40.054;4.110;2023-05-25T14:20:26;101708.31;;;20.53;57.65
73240;BME280;61452;40.054;4.110;2023-05-25T14:25:28;101701.38;;;20.51;57.45
73240;BME280;61452;40.054;4.110;2023-05-25T14:30:30;101705.75;;;20.52;57.44
73240;BME280;61452;40.054;4.110;2023-05-25T14:35:32;101696.78;;;20.53;57.45
73240;BME280;61452;40.054;4.110;2023-05-25T14:40:34;101688.53;;;20.56;57.30
73240;BME280;61452;40.054;4.110;2023-05-25T14:45:36;101687.69;;;20.55;57.47
73240;BME280;61452;40.054;4.110;2023-05-25T14:50:38;101689.66;;;20.53;57.52
73240;BME280;61452;40.054;4.110;2023-05-25T14:55:42;101671.09;;;20.52;57.55
73240;BME280;61452;40.054;4.110;2023-05-25T15:00:44;101678.75;;;20.56;57.68
73240;BME280;61452;40.054;4.110;2023-05-25T15:05:46;101673.53;;;20.55;57.54
73240;BME280;61452;40.054;4.110;2023-05-25T15:10:48;101678.75;;;20.56;57.72
73240;BME280;61452;40.054;4.110;2023-05-25T15:15:50;101677.03;;;20.55;57.61
73240;BME280;61452;40.054;4.110;2023-05-25T15:20:57;101678.88;;;20.55;57.85
73240;BME280;61452;40.054;4.110;2023-05-25T15:25:59;101674.25;;;20.57;57.70
73240;BME280;61452;40.054;4.110;2023-05-25T15:31:05;101683.97;;;20.58;57.79
73240;BME280;61452;40.054;4.110;2023-05-25T15:36:07;101694.72;;;20.56;57.85
73240;BME280;61452;40.054;4.110;2023-05-25T15:41:13;101702.72;;;20.56;57.76
73240;BME280;61452;40.054;4.110;2023-05-25T15:46:17;101711.47;;;20.58;57.94
73240;BME280;61452;40.054;4.110;2023-05-25T15:51:19;101714.25;;;20.57;57.91
73240;BME280;61452;40.054;4.110;2023-05-25T15:56:22;101715.19;;;20.56;57.99
73240;BME280;61452;40.054;4.110;2023-05-25T16:01:24;101726.63;;;20.58;58.00
73240;BME280;61452;40.054;4.110;2023-05-25T16:06:26;101723.19;;;20.56;57.77
73240;BME280;61452;40.054;4.110;2023-05-25T16:11:28;101731.34;;;20.54;57.77
73240;BME280;61452;40.054;4.110;2023-05-25T16:16:32;101728.44;;;20.57;57.67
73240;BME280;61452;40.054;4.110;2023-05-25T16:21:34;101742.72;;;20.56;57.63
73240;BME280;61452;40.054;4.110;2023-05-25T16:26:38;101743.31;;;20.49;57.56
73240;BME280;61452;40.054;4.110;2023-05-25T16:31:40;101759.44;;;20.58;57.66
73240;BME280;61452;40.054;4.110;2023-05-25T16:36:42;101749.84;;;20.56;57.64
73240;BME280;61452;40.054;4.110;2023-05-25T16:41:44;101753.28;;;20.58;57.45
73240;BME280;61452;40.054;4.110;2023-05-25T16:46:47;101753.28;;;20.58;57.47
73240;BME280;61452;40.054;4.110;2023-05-25T16:51:49;101762.97;;;20.59;57.31
73240;BME280;61452;40.054;4.110;2023-05-25T16:56:51;101763.94;;;20.58;57.38
73240;BME280;61452;40.054;4.110;2023-05-25T17:01:53;101766.50;;;20.59;57.42
73240;BME280;61452;40.054;4.110;2023-05-25T17:06:56;101764.53;;;20.62;57.48
73240;BME280;61452;40.054;4.110;2023-05-25T17:11:58;101756.53;;;20.62;57.32
73240;BME280;61452;40.054;4.110;2023-05-25T17:17:01;101759.44;;;20.58;57.55
73240;BME280;61452;40.054;4.110;2023-05-25T17:22:04;101766.38;;;20.61;57.40
73240;BME280;61452;40.054;4.110;2023-05-25T17:27:06;101774.25;;;20.63;57.32
73240;BME280;61452;40.054;4.110;2023-05-25T17:32:08;101771.81;;;20.59;57.43
73240;BME280;61452;40.054;4.110;2023-05-25T17:37:11;101779.72;;;20.61;57.75
73240;BME280;61452;40.054;4.110;2023-05-25T17:42:13;101768.06;;;20.62;57.53
73240;BME280;61452;40.054;4.110;2023-05-25T17:47:15;101772.44;;;20.63;57.55
73240;BME280;61452;40.054;4.110;2023-05-25T17:52:17;101780.69;;;20.60;57.46
73240;BME280;61452;40.054;4.110;2023-05-25T17:57:19;101783.94;;;20.64;57.24
73240;BME280;61452;40.054;4.110;2023-05-25T18:02:21;101791.19;;;20.62;57.45
73240;BME280;61452;40.054;4.110;2023-05-25T18:07:24;101795.56;;;20.63;57.63
73240;BME280;61452;40.054;4.110;2023-05-25T18:12:26;101797.53;;;20.61;57.51
73240;BME280;61452;40.054;4.110;2023-05-25T18:17:29;101801.84;;;20.62;57.57
73240;BME280;61452;40.054;4.110;2023-05-25T18:22:31;101798.13;;;20.64;57.37
73240;BME280;61452;40.054;4.110;2023-05-25T18:27:33;101797.28;;;20.64;57.28
73240;BME280;61452;40.054;4.110;2023-05-25T18:32:35;101802.72;;;20.62;57.52
73240;BME280;61452;40.054;4.110;2023-05-25T18:37:37;101801.75;;;20.63;57.35
73240;BME280;61452;40.054;4.110;2023-05-25T18:42:39;101816.91;;;20.63;57.33
73240;BME280;61452;40.054;4.110;2023-05-25T18:47:41;101817.03;;;20.61;57.32
73240;BME280;61452;40.054;4.110;2023-05-25T18:52:44;101820.53;;;20.62;57.30
73240;BME280;61452;40.054;4.110;2023-05-25T18:57:51;101824.91;;;20.63;57.32
73240;BME280;61452;40.054;4.110;2023-05-25T19:02:53;101837.28;;;20.64;57.24
73240;BME280;61452;40.054;4.110;2023-05-25T19:07:56;101840.91;;;20.63;57.35
73240;BME280;61452;40.054;4.110;2023-05-25T19:13:00;101842.59;;;20.64;57.23
73240;BME280;61452;40.054;4.110;2023-05-25T19:18:02;101848.78;;;20.64;57.35
73240;BME280;61452;40.054;4.110;2023-05-25T19:23:05;101861.25;;;20.64;57.28
73240;BME280;61452;40.054;4.110;2023-05-25T19:28:07;101859.56;;;20.63;57.16
73240;BME280;61452;40.054;4.110;2023-05-25T19:33:09;101850.09;;;20.58;57.31
73240;BME280;61452;40.054;4.110;2023-05-25T19:38:11;101870.97;;;20.65;57.27
73240;BME280;61452;40.054;4.110;2023-05-25T19:43:14;101880.88;;;20.63;57.29
73240;BME280;61452;40.054;4.110;2023-05-25T19:48:16;101888.78;;;20.64;57.36
73240;BME280;61452;40.054;4.110;2023-05-25T19:53:20;101890.59;;;20.64;57.36
73240;BME280;61452;40.054;4.110;2023-05-25T19:58:22;101895.91;;;20.64;57.36
73240;BME280;61452;40.054;4.110;2023-05-25T20:03:24;101905.00;;;20.61;57.16
73240;BME280;61452;40.054;4.110;2023-05-25T20:08:26;101918.09;;;20.64;57.18
73240;BME280;61452;40.054;4.110;2023-05-25T20:13:29;101910.22;;;20.63;57.24
73240;BME280;61452;40.054;4.110;2023-05-25T20:18:31;101912.03;;;20.62;57.30
73240;BME280;61452;40.054;4.110;2023-05-25T20:23:33;101923.53;;;20.63;57.03
73240;BME280;61452;40.054;4.110;2023-05-25T20:28:35;101922.59;;;20.64;56.91
73240;BME280;61452;40.054;4.110;2023-05-25T20:33:38;101926.09;;;20.64;57.00
73240;BME280;61452;40.054;4.110;2023-05-25T20:38:40;101930.81;;;20.61;56.99
73240;BME280;61452;40.054;4.110;2023-05-25T20:43:42;101931.44;;;20.64;57.08
73240;BME280;61452;40.054;4.110;2023-05-25T20:48:44;101932.28;;;20.65;57.04
73240;BME280;61452;40.054;4.110;2023-05-25T20:53:46;101935.16;;;20.62;57.07
73240;BME280;61452;40.054;4.110;2023-05-25T20:58:48;101935.16;;;20.62;57.04
73240;BME280;61452;40.054;4.110;2023-05-25T21:03:50;101923.53;;;20.63;56.83
73240;BME280;61452;40.054;4.110;2023-05-25T21:08:52;101927.81;;;20.65;57.06
73240;BME280;61452;40.054;4.110;2023-05-25T21:13:55;101921.84;;;20.62;56.97
73240;BME280;61452;40.054;4.110;2023-05-25T21:18:57;101926.34;;;20.61;57.09
73240;BME280;61452;40.054;4.110;2023-05-25T21:24:00;101923.78;;;20.59;56.97
73240;BME280;61452;40.054;4.110;2023-05-25T21:29:02;101926.19;;;20.63;56.91
73240;BME280;61452;40.054;4.110;2023-05-25T21:34:04;101909.69;;;20.57;56.87
73240;BME280;61452;40.054;4.110;2023-05-25T21:39:06;101923.69;;;20.61;56.85
73240;BME280;61452;40.054;4.110;2023-05-25T21:44:09;101930.69;;;20.62;56.64
73240;BME280;61452;40.054;4.110;2023-05-25T21:49:11;101920.59;;;20.54;56.71
73240;BME280;61452;40.054;4.110;2023-05-25T21:54:13;101931.69;;;20.61;56.88
73240;BME280;61452;40.054;4.110;2023-05-25T21:59:15;101923.53;;;20.63;56.75
73240;BME280;61452;40.054;4.110;2023-05-25T22:04:17;101931.53;;;20.63;56.59
73240;BME280;61452;40.054;4.110;2023-05-25T22:09:19;101930.91;;;20.59;56.60
73240;BME280;61452;40.054;4.110;2023-05-25T22:14:21;101916.13;;;20.55;56.78
73240;BME280;61452;40.054;4.110;2023-05-25T22:19:23;101929.00;;;20.61;56.69
73240;BME280;61452;40.054;4.110;2023-05-25T22:24:25;101930.69;;;20.62;56.63
73240;BME280;61452;40.054;4.110;2023-05-25T22:29:27;101935.16;;;20.62;56.57
73240;BME280;61452;40.054;4.110;2023-05-25T22:34:30;101941.34;;;20.62;56.53
73240;BME280;61452;40.054;4.110;2023-05-25T22:39:32;101936.88;;;20.63;56.56
73240;BME280;61452;40.054;4.110;2023-05-25T22:44:34;101936.25;;;20.59;56.61
73240;BME280;61452;40.054;4.110;2023-05-25T22:49:37;101939.66;;;20.61;56.70
73240;BME280;61452;40.054;4.110;2023-05-25T22:54:44;101954.81;;;20.61;56.78
73240;BME280;61452;40.054;4.110;2023-05-25T22:59:47;101952.88;;;20.63;56.46
73240;BME280;61452;40.054;4.110;2023-05-25T23:04:49;101950.34;;;20.61;56.46
73240;BME280;61452;40.054;4.110;2023-05-25T23:09:51;101944.00;;;20.62;56.55
73240;BME280;61452;40.054;4.110;2023-05-25T23:14:53;101949.47;;;20.61;56.48
73240;BME280;61452;40.054;4.110;2023-05-25T23:19:57;101944.88;;;20.63;56.88
73240;BME280;61452;40.054;4.110;2023-05-25T23:24:59;101938.69;;;20.62;56.56
73240;BME280;61452;40.054;4.110;2023-05-25T23:30:01;101927.28;;;20.60;56.45
73240;BME280;61452;40.054;4.110;2023-05-25T23:35:05;101925.50;;;20.61;56.46
73240;BME280;61452;40.054;4.110;2023-05-25T23:40:07;101930.81;;;20.61;56.69
73240;BME280;61452;40.054;4.110;2023-05-25T23:45:10;101931.69;;;20.61;56.81
73240;BME280;61452;40.054;4.110;2023-05-25T23:50:14;101924.63;;;20.60;56.83
73240;BME280;61452;40.054;4.110;2023-05-25T23:55:16;101934.34;;;20.61;56.78
